Sir Randy J — WDG7206 — position and weather

sailwx.info

Track history (hours):
 
Tides and Currents Weather Stations Pressure Air Temp Water Temp Dewpoint Dewpoint Depression Visibility Wind Speed Wind Dir Waves Ship Positions

Sir Randy J

Owner: Canton Marine Towing Co., Inc., Canton, MO. More information available from US FCC via Universal Licensing System and Coast Guard Vessel Documentation Center.

Last reported at 2018-May-15 14:20 UTC. Time now 2018-May-21 15:06 UTC.
Position N 38°52' W 090°09'.

Length 20 m.

Type: Towing. MMSI: 367564950.

Date/timePositionNaut miles runAvg speedWind from/ knotsBaromVisibWave heightAir tempDewpointWater temp
2018-May-15 14:20N 38°52' W 090°09'2 4.9
2018-May-15 14:00N 38°53' W 090°11'4 7.2
2018-May-15 13:30N 38°55' W 090°15'3 6.8
2018-May-15 13:00N 38°56' W 090°19'3 6.8
2018-May-15 12:30N 38°57' W 090°23'3 6.7
2018-May-15 12:00N 38°57' W 090°27'3 6.7
2018-May-15 11:30N 38°55' W 090°30'3 6.9
2018-May-15 11:00N 38°52' W 090°33'3 6.7
2018-May-15 10:30N 38°52' W 090°37'3 6.4
2018-May-15 10:00N 38°55' W 090°39'4 7.0
2018-May-15 09:29N 38°59' W 090°41'2 3.6
2018-May-15 09:00N 39°00' W 090°41'1 2.6
2018-May-15 08:30N 39°01' W 090°42'2 3.4
2018-May-15 08:00N 39°03' W 090°43'0 0.0
2018-May-15 07:30N 39°03' W 090°43'0 0.0
2018-May-15 07:00N 39°03' W 090°43'0 0.0
2018-May-15 06:30N 39°03' W 090°43'0 0.0
2018-May-15 06:00N 39°03' W 090°43'0 0.0
2018-May-15 05:30N 39°03' W 090°43'1 2.0
2018-May-15 05:00N 39°04' W 090°42'3 5.9
2018-May-15 04:30N 39°07' W 090°41'5 6.5
2018-May-15 03:46N 39°11' W 090°43'4 6.8
2018-May-15 03:15N 39°15' W 090°43'3 6.1
2018-May-15 02:44N 39°17' W 090°46'2 6.6
2018-May-15 02:30N 39°18' W 090°47'3 6.7
2018-May-15 02:00N 39°20' W 090°51'  
2018-May-09 03:48N 39°04' W 090°42'2 5.3
2018-May-09 03:30N 39°02' W 090°42'2 4.6
2018-May-09 03:00N 39°00' W 090°41'1 1.7
2018-May-09 02:30N 38°59' W 090°41'0 0.7
2018-May-09 01:57N 38°59' W 090°41'3 5.8
2018-May-09 01:30N 38°57' W 090°40'3 5.7
2018-May-09 01:00N 38°54' W 090°38'3 5.6
2018-May-09 00:30N 38°52' W 090°36'3 5.7
2018-May-09 00:00N 38°53' W 090°32'3 6.2
2018-May-08 23:30N 38°55' W 090°30'3 6.1
2018-May-08 23:00N 38°57' W 090°27'3 6.7
2018-May-08 22:30N 38°57' W 090°23'4 7.5
2018-May-08 22:00N 38°55' W 090°19'3 5.8
2018-May-08 21:30N 38°55' W 090°15'3 5.5
2018-May-08 21:00N 38°54' W 090°12'3 5.8
2018-May-08 20:30N 38°52' W 090°09'2 3.8
2018-May-08 20:00N 38°51' W 090°07'3 5.0
2018-May-08 19:30N 38°49' W 090°07'4 7.8
2018-May-08 19:00N 38°45' W 090°09'4 5.5
2018-May-08 18:18N 38°42' W 090°11'2 6.0
2018-May-08 18:00N 38°40' W 090°11'1 1.8
2018-May-08 17:17N 38°39' W 090°11'1 1.8
2018-May-08 16:55N 38°38' W 090°11'1 0.2
2018-May-08 13:00N 38°37' W 090°11'2 3.0
2018-May-08 12:30N 38°39' W 090°11'0 0.0
2018-May-08 12:00N 38°39' W 090°11'0 0.0
2018-May-08 11:30N 38°39' W 090°11'0 0.0
2018-May-08 11:00N 38°39' W 090°11'0 0.0
2018-May-08 10:30N 38°39' W 090°11'0 0.0
2018-May-08 10:00N 38°39' W 090°11'0 0.0
2018-May-08 09:30N 38°39' W 090°11'0 0.0
2018-May-08 09:00N 38°39' W 090°11'0 0.0
2018-May-08 08:30N 38°39' W 090°11'0 0.0
2018-May-08 07:59N 38°39' W 090°11'0 0.2
2018-May-08 07:26N 38°39' W 090°11'0 0.2
2018-May-08 06:59N 38°39' W 090°11'0 0.1
2018-May-08 06:30N 38°39' W 090°11'3 5.2
2018-May-08 06:00N 38°41' W 090°11'1 2.2
2018-May-08 05:30N 38°42' W 090°11'2 3.6
2018-May-08 05:00N 38°44' W 090°10'3 5.9
2018-May-08 04:30N 38°46' W 090°08'3 6.1
2018-May-08 04:00N 38°49' W 090°07'2 3.3
2018-May-08 03:30N 38°51' W 090°07'2 4.0
2018-May-08 02:56N 38°52' W 090°09'1 2.8
2018-May-08 02:30N 38°53' W 090°10'2 4.7
2018-May-08 02:00N 38°54' W 090°13'3 5.9
2018-May-08 01:30N 38°55' W 090°16'3 6.2
2018-May-08 01:00N 38°56' W 090°20'3 6.2
2018-May-08 00:30N 38°58' W 090°24'3 6.2
2018-May-08 00:00N 38°57' W 090°28'3 6.1
2018-May-07 23:30N 38°55' W 090°30'3 6.3
2018-May-07 23:00N 38°53' W 090°32'3 6.2
2018-May-07 22:30N 38°52' W 090°36'3 6.2
2018-May-07 22:00N 38°55' W 090°39'3 6.3
2018-May-07 21:30N 38°58' W 090°40'3 5.5
2018-May-07 21:00N 39°00' W 090°41'1 1.5
2018-May-07 20:30N 39°01' W 090°42'2 4.3
2018-May-07 20:00N 39°03' W 090°43'0 0.0
2018-May-07 19:30N 39°03' W 090°43'1 1.1
2018-May-07 19:00N 39°03' W 090°43'3 5.4
2018-May-07 18:29N 39°06' W 090°41'3 5.8
2018-May-07 17:55N 39°09' W 090°43'  
Track history (hours):
 
Tides and Currents Weather Stations Pressure Air Temp Water Temp Dewpoint Dewpoint Depression Visibility Wind Speed Wind Dir Waves Ship Positions

Sir Randy J

Owner: Canton Marine Towing Co., Inc., Canton, MO. More information available from US FCC via Universal Licensing System and Coast Guard Vessel Documentation Center.

Last reported at 2018-May-15 14:20 UTC. Time now 2018-May-21 15:06 UTC.
Position N 38°52' W 090°09'.

Length 20 m.

Type: Towing. MMSI: 367564950.

Date/timePositionNaut miles runAvg speedWind from/ knotsBaromVisibWave heightAir tempDewpointWater temp
2018-May-15 14:20N 38°52' W 090°09'2 4.9
2018-May-15 14:00N 38°53' W 090°11'4 7.2
2018-May-15 13:30N 38°55' W 090°15'3 6.8
2018-May-15 13:00N 38°56' W 090°19'3 6.8
2018-May-15 12:30N 38°57' W 090°23'3 6.7
2018-May-15 12:00N 38°57' W 090°27'3 6.7
2018-May-15 11:30N 38°55' W 090°30'3 6.9
2018-May-15 11:00N 38°52' W 090°33'3 6.7
2018-May-15 10:30N 38°52' W 090°37'3 6.4
2018-May-15 10:00N 38°55' W 090°39'4 7.0
2018-May-15 09:29N 38°59' W 090°41'2 3.6
2018-May-15 09:00N 39°00' W 090°41'1 2.6
2018-May-15 08:30N 39°01' W 090°42'2 3.4
2018-May-15 08:00N 39°03' W 090°43'0 0.0
2018-May-15 07:30N 39°03' W 090°43'0 0.0
2018-May-15 07:00N 39°03' W 090°43'0 0.0
2018-May-15 06:30N 39°03' W 090°43'0 0.0
2018-May-15 06:00N 39°03' W 090°43'0 0.0
2018-May-15 05:30N 39°03' W 090°43'1 2.0
2018-May-15 05:00N 39°04' W 090°42'3 5.9
2018-May-15 04:30N 39°07' W 090°41'5 6.5
2018-May-15 03:46N 39°11' W 090°43'4 6.8
2018-May-15 03:15N 39°15' W 090°43'3 6.1
2018-May-15 02:44N 39°17' W 090°46'2 6.6
2018-May-15 02:30N 39°18' W 090°47'3 6.7
2018-May-15 02:00N 39°20' W 090°51'  
2018-May-09 03:48N 39°04' W 090°42'2 5.3
2018-May-09 03:30N 39°02' W 090°42'2 4.6
2018-May-09 03:00N 39°00' W 090°41'1 1.7
2018-May-09 02:30N 38°59' W 090°41'0 0.7
2018-May-09 01:57N 38°59' W 090°41'3 5.8
2018-May-09 01:30N 38°57' W 090°40'3 5.7
2018-May-09 01:00N 38°54' W 090°38'3 5.6
2018-May-09 00:30N 38°52' W 090°36'3 5.7
2018-May-09 00:00N 38°53' W 090°32'3 6.2
2018-May-08 23:30N 38°55' W 090°30'3 6.1
2018-May-08 23:00N 38°57' W 090°27'3 6.7
2018-May-08 22:30N 38°57' W 090°23'4 7.5
2018-May-08 22:00N 38°55' W 090°19'3 5.8
2018-May-08 21:30N 38°55' W 090°15'3 5.5
2018-May-08 21:00N 38°54' W 090°12'3 5.8
2018-May-08 20:30N 38°52' W 090°09'2 3.8
2018-May-08 20:00N 38°51' W 090°07'3 5.0
2018-May-08 19:30N 38°49' W 090°07'4 7.8
2018-May-08 19:00N 38°45' W 090°09'4 5.5
2018-May-08 18:18N 38°42' W 090°11'2 6.0
2018-May-08 18:00N 38°40' W 090°11'1 1.8
2018-May-08 17:17N 38°39' W 090°11'1 1.8
2018-May-08 16:55N 38°38' W 090°11'1 0.2
2018-May-08 13:00N 38°37' W 090°11'2 3.0
2018-May-08 12:30N 38°39' W 090°11'0 0.0
2018-May-08 12:00N 38°39' W 090°11'0 0.0
2018-May-08 11:30N 38°39' W 090°11'0 0.0
2018-May-08 11:00N 38°39' W 090°11'0 0.0
2018-May-08 10:30N 38°39' W 090°11'0 0.0
2018-May-08 10:00N 38°39' W 090°11'0 0.0
2018-May-08 09:30N 38°39' W 090°11'0 0.0
2018-May-08 09:00N 38°39' W 090°11'0 0.0
2018-May-08 08:30N 38°39' W 090°11'0 0.0
2018-May-08 07:59N 38°39' W 090°11'0 0.2
2018-May-08 07:26N 38°39' W 090°11'0 0.2
2018-May-08 06:59N 38°39' W 090°11'0 0.1
2018-May-08 06:30N 38°39' W 090°11'3 5.2
2018-May-08 06:00N 38°41' W 090°11'1 2.2
2018-May-08 05:30N 38°42' W 090°11'2 3.6
2018-May-08 05:00N 38°44' W 090°10'3 5.9
2018-May-08 04:30N 38°46' W 090°08'3 6.1
2018-May-08 04:00N 38°49' W 090°07'2 3.3
2018-May-08 03:30N 38°51' W 090°07'2 4.0
2018-May-08 02:56N 38°52' W 090°09'1 2.8
2018-May-08 02:30N 38°53' W 090°10'2 4.7
2018-May-08 02:00N 38°54' W 090°13'3 5.9
2018-May-08 01:30N 38°55' W 090°16'3 6.2
2018-May-08 01:00N 38°56' W 090°20'3 6.2
2018-May-08 00:30N 38°58' W 090°24'3 6.2
2018-May-08 00:00N 38°57' W 090°28'3 6.1
2018-May-07 23:30N 38°55' W 090°30'3 6.3
2018-May-07 23:00N 38°53' W 090°32'3 6.2
2018-May-07 22:30N 38°52' W 090°36'3 6.2
2018-May-07 22:00N 38°55' W 090°39'3 6.3
2018-May-07 21:30N 38°58' W 090°40'3 5.5
2018-May-07 21:00N 39°00' W 090°41'1 1.5
2018-May-07 20:30N 39°01' W 090°42'2 4.3
2018-May-07 20:00N 39°03' W 090°43'0 0.0
2018-May-07 19:30N 39°03' W 090°43'1 1.1
2018-May-07 19:00N 39°03' W 090°43'3 5.4
2018-May-07 18:29N 39°06' W 090°41'3 5.8
2018-May-07 17:55N 39°09' W 090°43'  

Dump ship's entire track history